createdAt,value
2022-10-24T00:04:58.763Z,0
2022-10-24T00:09:58.479Z,0
2022-10-24T00:14:58.651Z,0
2022-10-24T00:19:58.691Z,0
2022-10-24T00:24:58.692Z,0
2022-10-24T00:29:58.483Z,0
2022-10-24T00:34:58.751Z,0
2022-10-24T00:39:58.615Z,0
2022-10-24T00:44:58.419Z,0
2022-10-24T00:49:58.575Z,0
2022-10-24T00:54:58.707Z,0
2022-10-24T00:59:58.506Z,0
2022-10-24T01:04:58.540Z,0
2022-10-24T01:09:58.609Z,0
2022-10-24T01:15:02.432Z,0
2022-10-24T01:19:58.597Z,0
2022-10-24T01:25:05.218Z,0
2022-10-24T01:30:03.849Z,0
2022-10-24T01:34:58.357Z,0
2022-10-24T01:39:58.361Z,0
2022-10-24T01:44:58.385Z,0
2022-10-24T01:49:58.627Z,0
2022-10-24T01:54:58.375Z,0
2022-10-24T01:59:58.318Z,0
2022-10-24T02:04:58.407Z,0
2022-10-24T02:09:58.614Z,0
2022-10-24T02:14:58.514Z,0
2022-10-24T02:19:58.410Z,0
2022-10-24T02:24:58.467Z,0
2022-10-24T02:29:58.453Z,0
2022-10-24T02:34:59.687Z,0
2022-10-24T02:39:58.642Z,0
2022-10-24T02:44:58.507Z,0
2022-10-24T02:49:58.761Z,0
2022-10-24T02:54:58.272Z,0
2022-10-24T02:59:58.472Z,0
2022-10-24T03:04:58.433Z,0
2022-10-24T03:09:58.315Z,0
2022-10-24T03:14:58.252Z,0
2022-10-24T03:19:58.339Z,0
2022-10-24T03:24:58.276Z,0
2022-10-24T03:29:58.565Z,0
2022-10-24T03:34:58.678Z,0
2022-10-24T03:39:58.695Z,0
2022-10-24T03:44:58.439Z,0
2022-10-24T03:49:58.262Z,0
2022-10-24T03:54:58.265Z,0
2022-10-24T03:59:58.538Z,0
2022-10-24T04:04:58.203Z,0
2022-10-24T04:09:58.235Z,0
2022-10-24T04:15:02.424Z,0
2022-10-24T04:19:58.491Z,0
2022-10-24T04:24:58.211Z,0
2022-10-24T04:29:58.453Z,0
2022-10-24T04:34:58.224Z,0
2022-10-24T04:39:58.475Z,0
2022-10-24T04:44:58.326Z,0
2022-10-24T04:49:58.342Z,0
2022-10-24T04:54:58.128Z,0
2022-10-24T04:59:58.346Z,0
2022-10-24T05:04:58.449Z,0
2022-10-24T05:09:58.273Z,0
2022-10-24T05:14:58.312Z,0
2022-10-24T05:19:58.423Z,0
2022-10-24T05:24:58.235Z,0
2022-10-24T05:29:58.110Z,0
2022-10-24T05:34:58.135Z,0
2022-10-24T05:39:58.164Z,0
2022-10-24T05:44:58.237Z,0
2022-10-24T05:49:58.143Z,0
2022-10-24T05:55:06.764Z,0
2022-10-24T05:59:58.381Z,0
2022-10-24T06:04:58.212Z,0
2022-10-24T06:09:58.050Z,0
2022-10-24T06:14:58.291Z,0
2022-10-24T06:19:58.130Z,0
2022-10-24T06:24:58.426Z,0.5
2022-10-24T06:29:58.382Z,1.6
2022-10-24T06:34:58.204Z,2.9
2022-10-24T06:39:58.210Z,4
2022-10-24T06:49:58.178Z,7.6
2022-10-24T06:54:58.029Z,12.3
2022-10-24T06:59:58.230Z,18.6
2022-10-24T07:04:58.255Z,15.5
2022-10-24T07:09:58.294Z,13.5
2022-10-24T07:14:58.175Z,10.3
2022-10-24T07:19:58.299Z,9.4
2022-10-24T07:24:58.064Z,9.6
2022-10-24T07:30:00.478Z,10.8
2022-10-24T07:34:58.223Z,11
2022-10-24T07:39:57.939Z,15.3
2022-10-24T07:44:58.226Z,19.1
2022-10-24T07:49:58.255Z,18.6
2022-10-24T07:54:58.147Z,18.4
2022-10-24T07:59:58.009Z,42.5
2022-10-24T08:04:57.974Z,35.5
2022-10-24T08:09:57.983Z,28.3
2022-10-24T08:14:58.372Z,29.1
2022-10-24T08:19:58.586Z,53.6
2022-10-24T08:24:58.040Z,50.9
2022-10-24T08:29:58.187Z,50.8
2022-10-24T08:34:58.021Z,34
2022-10-24T08:39:57.908Z,26.8
2022-10-24T08:44:57.894Z,40.9
2022-10-24T08:49:58.201Z,36.6
2022-10-24T08:55:04.604Z,32.5
2022-10-24T09:00:00.312Z,35.8
2022-10-24T09:04:57.900Z,98.5
2022-10-24T09:09:57.861Z,125.4
2022-10-24T09:14:58.006Z,103.9
2022-10-24T09:19:58.001Z,100.1
2022-10-24T09:24:57.862Z,122.8
2022-10-24T09:29:57.896Z,115.5
2022-10-24T09:34:58.122Z,109.1
2022-10-24T09:39:58.161Z,97.8
2022-10-24T09:44:58.173Z,79.9
2022-10-24T09:49:58.233Z,80.1
2022-10-24T09:54:57.887Z,71.3
2022-10-24T09:59:57.887Z,67.5
2022-10-24T10:04:57.823Z,71
2022-10-24T10:09:59.489Z,81.7
2022-10-24T10:14:57.899Z,82.7
2022-10-24T10:19:58.724Z,82.7
2022-10-24T10:24:58.053Z,120.8
2022-10-24T10:29:57.828Z,120.8
2022-10-24T10:35:02.255Z,105.2
2022-10-24T10:40:15.453Z,100.3
2022-10-24T10:44:57.834Z,143.4
2022-10-24T10:49:58.026Z,163.5
2022-10-24T10:54:57.928Z,167
2022-10-24T11:00:01.781Z,173.4
2022-10-24T11:04:57.772Z,144.9
2022-10-24T11:09:57.876Z,115.4
2022-10-24T11:14:57.760Z,98.3
2022-10-24T11:19:57.996Z,114.5
2022-10-24T11:24:57.796Z,91.1
2022-10-24T11:29:57.957Z,63.5
2022-10-24T11:34:58.016Z,80.9
2022-10-24T11:40:00.333Z,99.4
2022-10-24T11:45:02.836Z,120.7
2022-10-24T11:49:57.894Z,106.1
2022-10-24T11:54:57.668Z,107.9
2022-10-24T11:59:58.286Z,123.1
2022-10-24T12:04:58.041Z,120.4
2022-10-24T12:09:57.872Z,159.3
2022-10-24T12:15:07.562Z,159.5
2022-10-24T12:19:59.402Z,145.3
2022-10-24T12:25:01.903Z,140.8
2022-10-24T12:29:57.683Z,348.7
2022-10-24T12:35:12.190Z,224.8
2022-10-24T12:39:58.762Z,141.6
2022-10-24T12:44:57.976Z,74.8
2022-10-24T12:50:29.036Z,65.3
2022-10-24T12:54:57.687Z,76.9
2022-10-24T12:59:57.644Z,62.3
2022-10-24T13:04:57.932Z,53.8
2022-10-24T13:09:57.850Z,49.4
2022-10-24T13:14:57.798Z,43.8
2022-10-24T13:20:02.955Z,106.9
2022-10-24T13:24:57.620Z,84.3
2022-10-24T13:29:57.885Z,73.9
2022-10-24T13:34:57.925Z,65.9
2022-10-24T13:39:57.629Z,40.1
2022-10-24T13:44:57.585Z,30.6
2022-10-24T13:49:57.889Z,26.7
2022-10-24T13:55:01.556Z,37.3
2022-10-24T13:59:57.743Z,84
2022-10-24T14:04:58.346Z,116.6
2022-10-24T14:09:57.753Z,88.4
2022-10-24T14:14:57.775Z,66.2
2022-10-24T14:19:57.643Z,50.1
2022-10-24T14:24:58.127Z,36.9
2022-10-24T14:29:57.549Z,28.6
2022-10-24T14:34:57.851Z,39.2
2022-10-24T14:39:57.903Z,53.8
2022-10-24T14:44:58.621Z,63.2
2022-10-24T14:49:57.566Z,43.1
2022-10-24T14:54:57.644Z,67.3
2022-10-24T14:59:57.716Z,49.1
2022-10-24T15:04:57.779Z,50.3
2022-10-24T15:09:58.933Z,50.4
2022-10-24T15:15:21.548Z,60.3
2022-10-24T15:19:57.685Z,60
2022-10-24T15:24:57.641Z,58.7
2022-10-24T15:29:57.573Z,58
2022-10-24T15:34:57.747Z,39.3
2022-10-24T15:39:57.457Z,31.3
2022-10-24T15:44:57.559Z,26.3
2022-10-24T15:49:57.561Z,22.4
2022-10-24T15:54:57.462Z,17
2022-10-24T15:59:57.452Z,11.9
2022-10-24T16:04:57.761Z,9
2022-10-24T16:09:57.541Z,7.6
2022-10-24T16:14:58.040Z,6.1
2022-10-24T16:19:57.593Z,5.5
2022-10-24T16:24:57.695Z,4.4
2022-10-24T16:29:57.713Z,2.7
2022-10-24T16:34:57.614Z,1.6
2022-10-24T16:39:57.396Z,0.6
2022-10-24T16:44:57.496Z,0.2
2022-10-24T16:49:57.734Z,0.1
2022-10-24T16:54:57.685Z,0
2022-10-24T16:59:57.847Z,0
2022-10-24T17:04:57.372Z,0
2022-10-24T17:09:57.662Z,0
2022-10-24T17:14:57.560Z,0
2022-10-24T17:19:57.418Z,0
2022-10-24T17:24:57.457Z,0
2022-10-24T17:29:57.625Z,0
2022-10-24T17:34:57.437Z,0
2022-10-24T17:39:57.464Z,0
2022-10-24T17:44:57.607Z,0
2022-10-24T17:49:57.782Z,0
2022-10-24T17:54:57.368Z,0
2022-10-24T17:59:57.469Z,0
2022-10-24T18:04:57.447Z,0
2022-10-24T18:09:57.608Z,0
2022-10-24T18:14:57.349Z,0
2022-10-24T18:19:57.600Z,0
2022-10-24T18:24:57.573Z,0
2022-10-24T18:29:57.423Z,0
2022-10-24T18:34:57.365Z,0
2022-10-24T18:39:57.915Z,0
2022-10-24T18:44:57.442Z,0
2022-10-24T18:49:57.379Z,0
2022-10-24T18:54:57.448Z,0
2022-10-24T18:59:57.549Z,0
2022-10-24T19:05:03.711Z,0
2022-10-24T19:09:57.473Z,0
2022-10-24T19:14:57.534Z,0
2022-10-24T19:19:57.371Z,0
2022-10-24T19:24:57.551Z,0
2022-10-24T19:29:57.335Z,0
2022-10-24T19:34:57.407Z,0
2022-10-24T19:39:57.212Z,0
2022-10-24T19:44:57.447Z,0
2022-10-24T19:49:57.421Z,0
2022-10-24T19:54:57.225Z,0
2022-10-24T19:59:57.401Z,0
2022-10-24T20:04:57.259Z,0
2022-10-24T20:09:57.194Z,0
2022-10-24T20:14:57.244Z,0
2022-10-24T20:19:57.245Z,0
2022-10-24T20:24:57.284Z,0
2022-10-24T20:29:57.373Z,0
2022-10-24T20:34:57.655Z,0
2022-10-24T20:39:57.177Z,0
2022-10-24T20:44:57.394Z,0
2022-10-24T20:49:57.422Z,0
2022-10-24T20:54:57.304Z,0
2022-10-24T20:59:57.279Z,0
2022-10-24T21:04:57.301Z,0
2022-10-24T21:09:57.323Z,0
2022-10-24T21:14:57.362Z,0
2022-10-24T21:19:57.164Z,0
2022-10-24T21:24:57.153Z,0
2022-10-24T21:29:57.277Z,0
2022-10-24T21:34:57.166Z,0
2022-10-24T21:39:57.258Z,0
2022-10-24T21:44:57.267Z,0
2022-10-24T21:49:57.263Z,0
2022-10-24T21:54:57.271Z,0
2022-10-24T22:00:04.181Z,0
2022-10-24T22:04:57.173Z,0
2022-10-24T22:09:57.143Z,0
2022-10-24T22:14:57.310Z,0
2022-10-24T22:19:57.740Z,0
2022-10-24T22:24:57.151Z,0
2022-10-24T22:29:57.091Z,0
2022-10-24T22:34:57.291Z,0
2022-10-24T22:39:57.115Z,0
2022-10-24T22:44:57.306Z,0
2022-10-24T22:49:57.368Z,0
2022-10-24T22:54:57.166Z,0
2022-10-24T22:59:57.234Z,0
2022-10-24T23:04:56.951Z,0
2022-10-24T23:09:56.969Z,0
2022-10-24T23:14:57.226Z,0
2022-10-24T23:19:57.405Z,0
2022-10-24T23:24:57.006Z,0
2022-10-24T23:29:57.660Z,0
2022-10-24T23:34:57.001Z,0
2022-10-24T23:39:57.099Z,0
2022-10-24T23:44:57.137Z,0
2022-10-24T23:49:57.253Z,0
2022-10-24T23:54:57.246Z,0
2022-10-24T23:59:57.007Z,0
